Marion, IN

6:57 AM EDT on August 31, 2014 (GMT -0400)
INDOT Gas City | Change Station
CLOSE
Current Station
Personal Weather Station
Location: Upland, IN
Elevation: 890 ft
Nearby Weather Stations

Elev 890 ft 40.50 °N, 85.55 °W | Updated 415 days ago

Rain
Rain
70 °F
Feels Like 70 °F
N
7
Wind Variable Wind from SSW
Gusts 8 mph

Today
High -- | Low -- °F
--% Chance of Precip.
Yesterday
High -- | Low -- °F
Precip. -- in
7:08 AM 8:15 PM
Waxing Crescent, 30% visible
Pressure 29.99 in
Visibility 5.0 miles
Clouds Mostly Cloudy 7000 ft
Mostly Cloudy 10000 ft
Dew Point 68 °F
Humidity 92%
Rainfall -999.00 in
Snow Depth Not available.
UV 0 out of 12
Pollen 9.50 out of 12
Air Quality Not available.
Flu Activity Not available.
METAR KMZZ 311035Z AUTO 21005KT 5SM BR BKN070 BKN100 20/20 A2999 RMK AO2 T02020195

More Conditions Fewer Conditions

Pressure 29.99 in
Visibility 5.0 miles
Clouds Mostly Cloudy 7000 ft
Mostly Cloudy 10000 ft
Dew Point 68 °F
Humidity 92%
Rainfall -999.00 in
Snow Depth Not available.
UV 0 out of 12
Pollen 9.50 out of 12
Air Quality Not available.
Flu Activity Not available.
METAR KMZZ 311035Z AUTO 21005KT 5SM BR BKN070 BKN100 20/20 A2999 RMK AO2 T02020195

More Conditions Fewer Conditions

10-Day Weather Forecast

Almanac

Astronomy

Aug. 31, 2014 Rise Set
Actual Time 7:08 AM EDT 8:15 PM EDT
Civil Twilight 6:40 AM EDT 8:43 PM EDT
Nautical Twilight 6:06 AM EDT 9:17 PM EDT
Astronomical Twilight 5:31 AM EDT 9:52 PM EDT
Moon 12:55 PM EDT 11:28 PM EDT
Length of Visible Light 14h 03m
Length of Day
13h 07m
Tomorrow will be 2m 33s shorter.
Waxing Crescent, 30% of the Moon is Illuminated
Today
Waxing Crescent
Sep 2
First Quarter
Sep 8
Full
Sep 15
Last Quarter
Sep 24
New

Today's Extremes

State Highs State Lows

Community

WunderPhotos

Upload Photos

1,748,837 photos uploaded!

Nearby

Snow Depth

Station Depth Elevation
No new snow has been reported.

Earthquake Activity

City Distance Mag. Time & Date
No recent earthquake activity has been reported nearby.
Minimum magnitude displayed is 2.5.

Coastal Water Temperatures

Place Temperature
No Stations Reporting

Nearby Weather Stations